sensor_id;sensor_type;location;lat;lon;timestamp;pressure;altitude;pressure_sealevel;temperature;humidity
61318;BME280;47201;40.428;-8.436;2023-05-29T00:01:56;100525.53;;;15.74;100.00
61318;BME280;47201;40.428;-8.436;2023-05-29T00:03:56;100527.31;;;15.71;100.00
61318;BME280;47201;40.428;-8.436;2023-05-29T00:05:57;100523.00;;;15.70;100.00
61318;BME280;47201;40.428;-8.436;2023-05-29T00:07:57;100528.94;;;15.77;100.00
61318;BME280;47201;40.428;-8.436;2023-05-29T00:09:58;100529.94;;;15.73;100.00
61318;BME280;47201;40.428;-8.436;2023-05-29T00:11:59;100531.63;;;15.76;100.00
61318;BME280;47201;40.428;-8.436;2023-05-29T00:14:01;100524.75;;;15.70;100.00
61318;BME280;47201;40.428;-8.436;2023-05-29T00:16:03;100520.31;;;15.72;100.00
61318;BME280;47201;40.428;-8.436;2023-05-29T00:18:05;100518.44;;;15.76;100.00
61318;BME280;47201;40.428;-8.436;2023-05-29T00:20:06;100518.44;;;15.76;100.00
61318;BME280;47201;40.428;-8.436;2023-05-29T00:22:12;100520.34;;;15.70;100.00
61318;BME280;47201;40.428;-8.436;2023-05-29T00:24:16;100520.34;;;15.70;100.00
61318;BME280;47201;40.428;-8.436;2023-05-29T00:26:17;100513.28;;;15.71;100.00
61318;BME280;47201;40.428;-8.436;2023-05-29T00:28:20;100514.16;;;15.71;100.00
61318;BME280;47201;40.428;-8.436;2023-05-29T00:30:21;100511.50;;;15.71;100.00
61318;BME280;47201;40.428;-8.436;2023-05-29T00:32:22;100521.16;;;15.73;100.00
61318;BME280;47201;40.428;-8.436;2023-05-29T00:34:23;100511.50;;;15.73;100.00
61318;BME280;47201;40.428;-8.436;2023-05-29T00:36:25;100514.16;;;15.71;100.00
61318;BME280;47201;40.428;-8.436;2023-05-29T00:38:26;100515.81;;;15.76;100.00
61318;BME280;47201;40.428;-8.436;2023-05-29T00:40:27;100517.44;;;15.80;100.00
61318;BME280;47201;40.428;-8.436;2023-05-29T00:42:27;100511.28;;;15.81;100.00
61318;BME280;47201;40.428;-8.436;2023-05-29T00:44:28;100512.19;;;15.80;100.00
61318;BME280;47201;40.428;-8.436;2023-05-29T00:46:30;100507.81;;;15.79;100.00
61318;BME280;47201;40.428;-8.436;2023-05-29T00:48:32;100501.75;;;15.75;100.00
61318;BME280;47201;40.428;-8.436;2023-05-29T00:50:33;100501.75;;;15.77;100.00
61318;BME280;47201;40.428;-8.436;2023-05-29T00:52:33;100495.63;;;15.75;100.00
61318;BME280;47201;40.428;-8.436;2023-05-29T00:54:34;100495.59;;;15.76;100.00
61318;BME280;47201;40.428;-8.436;2023-05-29T00:56:35;100490.41;;;15.73;100.00
61318;BME280;47201;40.428;-8.436;2023-05-29T00:58:36;100485.16;;;15.73;100.00
61318;BME280;47201;40.428;-8.436;2023-05-29T01:00:37;100492.94;;;15.78;100.00
61318;BME280;47201;40.428;-8.436;2023-05-29T01:02:42;100479.75;;;15.78;100.00
61318;BME280;47201;40.428;-8.436;2023-05-29T01:04:45;100471.13;;;15.71;100.00
61318;BME280;47201;40.428;-8.436;2023-05-29T01:06:46;100465.75;;;15.76;100.00
61318;BME280;47201;40.428;-8.436;2023-05-29T01:08:46;100473.59;;;15.77;100.00
61318;BME280;47201;40.428;-8.436;2023-05-29T01:10:48;100473.56;;;15.79;100.00
61318;BME280;47201;40.428;-8.436;2023-05-29T01:12:59;100467.34;;;15.81;100.00
61318;BME280;47201;40.428;-8.436;2023-05-29T01:15:30;100461.19;;;15.81;100.00
61318;BME280;47201;40.428;-8.436;2023-05-29T01:20:06;100467.81;;;15.97;100.00
61318;BME280;47201;40.428;-8.436;2023-05-29T01:24:49;100469.84;;;15.88;100.00
61318;BME280;47201;40.428;-8.436;2023-05-29T01:29:06;100478.63;;;15.88;100.00
61318;BME280;47201;40.428;-8.436;2023-05-29T01:31:09;100466.34;;;15.87;100.00
61318;BME280;47201;40.428;-8.436;2023-05-29T01:33:11;100473.38;;;15.86;100.00
61318;BME280;47201;40.428;-8.436;2023-05-29T01:35:12;100470.81;;;15.83;100.00
61318;BME280;47201;40.428;-8.436;2023-05-29T01:37:12;100462.00;;;15.86;100.00
61318;BME280;47201;40.428;-8.436;2023-05-29T01:39:14;100454.09;;;15.86;100.00
61318;BME280;47201;40.428;-8.436;2023-05-29T01:41:16;100454.19;;;15.81;100.00
61318;BME280;47201;40.428;-8.436;2023-05-29T01:43:17;100454.25;;;15.78;100.00
61318;BME280;47201;40.428;-8.436;2023-05-29T01:45:18;100452.56;;;15.76;100.00
61318;BME280;47201;40.428;-8.436;2023-05-29T01:47:21;100459.63;;;15.74;100.00
61318;BME280;47201;40.428;-8.436;2023-05-29T01:49:23;100450.91;;;15.71;100.00
61318;BME280;47201;40.428;-8.436;2023-05-29T01:51:25;100456.28;;;15.68;100.00
61318;BME280;47201;40.428;-8.436;2023-05-29T01:53:25;100451.84;;;15.70;100.00
61318;BME280;47201;40.428;-8.436;2023-05-29T01:55:26;100448.31;;;15.70;100.00
61318;BME280;47201;40.428;-8.436;2023-05-29T01:57:27;100445.63;;;15.71;100.00
61318;BME280;47201;40.428;-8.436;2023-05-29T01:59:29;100443.16;;;15.67;100.00
61318;BME280;47201;40.428;-8.436;2023-05-29T02:01:31;100445.91;;;15.61;100.00
61318;BME280;47201;40.428;-8.436;2023-05-29T02:03:32;100444.16;;;15.61;100.00
61318;BME280;47201;40.428;-8.436;2023-05-29T02:05:33;100432.84;;;15.58;100.00
61318;BME280;47201;40.428;-8.436;2023-05-29T02:07:34;100439.72;;;15.63;100.00
61318;BME280;47201;40.428;-8.436;2023-05-29T02:09:35;100443.16;;;15.67;100.00
61318;BME280;47201;40.428;-8.436;2023-05-29T02:11:36;100445.72;;;15.68;100.00
61318;BME280;47201;40.428;-8.436;2023-05-29T02:13:37;100441.44;;;15.64;100.00
61318;BME280;47201;40.428;-8.436;2023-05-29T02:15:38;100440.53;;;15.65;100.00
61318;BME280;47201;40.428;-8.436;2023-05-29T02:17:38;100445.03;;;15.62;100.00
61318;BME280;47201;40.428;-8.436;2023-05-29T02:19:41;100431.91;;;15.60;100.00
61318;BME280;47201;40.428;-8.436;2023-05-29T02:21:42;100432.75;;;15.61;100.00
61318;BME280;47201;40.428;-8.436;2023-05-29T02:23:43;100432.75;;;15.61;100.00
61318;BME280;47201;40.428;-8.436;2023-05-29T02:25:45;100433.63;;;15.61;100.00
61318;BME280;47201;40.428;-8.436;2023-05-29T02:27:46;100418.78;;;15.57;100.00
61318;BME280;47201;40.428;-8.436;2023-05-29T02:29:48;100417.13;;;15.54;100.00
61318;BME280;47201;40.428;-8.436;2023-05-29T02:31:48;100422.31;;;15.58;100.00
61318;BME280;47201;40.428;-8.436;2023-05-29T02:33:49;100419.69;;;15.58;100.00
61318;BME280;47201;40.428;-8.436;2023-05-29T02:35:50;100417.94;;;15.57;100.00
61318;BME280;47201;40.428;-8.436;2023-05-29T02:37:51;100420.53;;;15.58;100.00
61318;BME280;47201;40.428;-8.436;2023-05-29T02:39:52;100424.84;;;15.61;100.00
61318;BME280;47201;40.428;-8.436;2023-05-29T02:41:52;100419.63;;;15.59;100.00
61318;BME280;47201;40.428;-8.436;2023-05-29T02:43:54;100414.41;;;15.58;100.00
61318;BME280;47201;40.428;-8.436;2023-05-29T02:45:55;100425.00;;;15.56;100.00
61318;BME280;47201;40.428;-8.436;2023-05-29T02:47:56;100424.06;;;15.57;100.00
61318;BME280;47201;40.428;-8.436;2023-05-29T02:49:56;100414.53;;;15.53;100.00
61318;BME280;47201;40.428;-8.436;2023-05-29T02:51:58;100416.16;;;15.57;100.00
61318;BME280;47201;40.428;-8.436;2023-05-29T02:53:59;100408.25;;;15.59;100.00
61318;BME280;47201;40.428;-8.436;2023-05-29T02:55:59;100401.91;;;15.64;100.00
61318;BME280;47201;40.428;-8.436;2023-05-29T02:58:01;100409.88;;;15.63;100.00
61318;BME280;47201;40.428;-8.436;2023-05-29T03:00:02;100406.44;;;15.59;100.00
61318;BME280;47201;40.428;-8.436;2023-05-29T03:02:07;100402.88;;;15.62;100.00
61318;BME280;47201;40.428;-8.436;2023-05-29T03:04:11;100411.66;;;15.62;100.00
61318;BME280;47201;40.428;-8.436;2023-05-29T03:06:11;100402.97;;;15.59;100.00
61318;BME280;47201;40.428;-8.436;2023-05-29T03:08:16;100408.31;;;15.55;100.00
61318;BME280;47201;40.428;-8.436;2023-05-29T03:10:18;100408.25;;;15.57;100.00
61318;BME280;47201;40.428;-8.436;2023-05-29T03:12:18;100408.25;;;15.57;100.00
61318;BME280;47201;40.428;-8.436;2023-05-29T03:14:19;100404.78;;;15.57;100.00
61318;BME280;47201;40.428;-8.436;2023-05-29T03:16:21;100405.66;;;15.55;100.00
61318;BME280;47201;40.428;-8.436;2023-05-29T03:18:22;100402.25;;;15.52;100.00
61318;BME280;47201;40.428;-8.436;2023-05-29T03:20:23;100403.94;;;15.54;100.00
61318;BME280;47201;40.428;-8.436;2023-05-29T03:22:28;100404.81;;;15.55;100.00
61318;BME280;47201;40.428;-8.436;2023-05-29T03:24:28;100397.78;;;15.55;100.00
61318;BME280;47201;40.428;-8.436;2023-05-29T03:26:29;100395.97;;;15.58;100.00
61318;BME280;47201;40.428;-8.436;2023-05-29T03:28:30;100393.28;;;15.59;100.00
61318;BME280;47201;40.428;-8.436;2023-05-29T03:30:32;100395.06;;;15.59;100.00
61318;BME280;47201;40.428;-8.436;2023-05-29T03:32:33;100390.69;;;15.58;100.00
61318;BME280;47201;40.428;-8.436;2023-05-29T03:34:34;100394.16;;;15.60;100.00
61318;BME280;47201;40.428;-8.436;2023-05-29T03:36:37;100396.78;;;15.60;100.00
61318;BME280;47201;40.428;-8.436;2023-05-29T03:38:38;100392.44;;;15.59;100.00
61318;BME280;47201;40.428;-8.436;2023-05-29T03:40:39;100400.28;;;15.60;100.00
61318;BME280;47201;40.428;-8.436;2023-05-29T03:42:41;100396.94;;;15.53;100.00
61318;BME280;47201;40.428;-8.436;2023-05-29T03:44:42;100405.59;;;15.59;100.00
61318;BME280;47201;40.428;-8.436;2023-05-29T03:46:45;100402.09;;;15.58;100.00
61318;BME280;47201;40.428;-8.436;2023-05-29T03:48:47;100407.19;;;15.64;100.00
61318;BME280;47201;40.428;-8.436;2023-05-29T03:50:49;100397.41;;;15.68;100.00
61318;BME280;47201;40.428;-8.436;2023-05-29T03:52:56;100400.03;;;15.69;100.00
61318;BME280;47201;40.428;-8.436;2023-05-29T03:54:57;100399.16;;;15.69;100.00
61318;BME280;47201;40.428;-8.436;2023-05-29T03:56:58;100404.41;;;15.70;100.00
61318;BME280;47201;40.428;-8.436;2023-05-29T03:59:02;100392.19;;;15.66;100.00
61318;BME280;47201;40.428;-8.436;2023-05-29T04:01:05;100398.31;;;15.68;100.00
61318;BME280;47201;40.428;-8.436;2023-05-29T04:03:06;100393.09;;;15.67;100.00
61318;BME280;47201;40.428;-8.436;2023-05-29T04:05:07;100396.66;;;15.64;100.00
61318;BME280;47201;40.428;-8.436;2023-05-29T04:07:14;100392.19;;;15.66;100.00
61318;BME280;47201;40.428;-8.436;2023-05-29T04:09:16;100397.41;;;15.69;100.00
61318;BME280;47201;40.428;-8.436;2023-05-29T04:11:16;100399.16;;;15.69;100.00
61318;BME280;47201;40.428;-8.436;2023-05-29T04:13:17;100390.44;;;15.67;100.00
61318;BME280;47201;40.428;-8.436;2023-05-29T04:15:18;100394.00;;;15.64;100.00
61318;BME280;47201;40.428;-8.436;2023-05-29T04:17:18;100389.56;;;15.66;100.00
61318;BME280;47201;40.428;-8.436;2023-05-29T04:19:19;100392.16;;;15.68;100.00
61318;BME280;47201;40.428;-8.436;2023-05-29T04:21:22;100389.38;;;15.73;100.00
61318;BME280;47201;40.428;-8.436;2023-05-29T04:23:23;100390.16;;;15.78;100.00
61318;BME280;47201;40.428;-8.436;2023-05-29T04:25:23;100393.63;;;15.78;100.00
61318;BME280;47201;40.428;-8.436;2023-05-29T04:27:24;100393.63;;;15.78;100.00
61318;BME280;47201;40.428;-8.436;2023-05-29T04:29:26;100393.69;;;15.77;100.00
61318;BME280;47201;40.428;-8.436;2023-05-29T04:31:28;100391.94;;;15.76;100.00
61318;BME280;47201;40.428;-8.436;2023-05-29T04:33:29;100383.16;;;15.75;100.00
61318;BME280;47201;40.428;-8.436;2023-05-29T04:35:31;100384.03;;;15.76;100.00
61318;BME280;47201;40.428;-8.436;2023-05-29T04:37:36;100384.03;;;15.76;100.00
61318;BME280;47201;40.428;-8.436;2023-05-29T04:39:41;100388.41;;;15.77;100.00
61318;BME280;47201;40.428;-8.436;2023-05-29T04:41:42;100394.47;;;15.80;100.00
61318;BME280;47201;40.428;-8.436;2023-05-29T04:43:47;100398.84;;;15.81;100.00
61318;BME280;47201;40.428;-8.436;2023-05-29T04:45:50;100392.72;;;15.79;100.00
61318;BME280;47201;40.428;-8.436;2023-05-29T04:47:51;100397.03;;;15.82;100.00
61318;BME280;47201;40.428;-8.436;2023-05-29T04:49:54;100397.94;;;15.81;100.00
61318;BME280;47201;40.428;-8.436;2023-05-29T04:51:54;100399.75;;;15.79;100.00
61318;BME280;47201;40.428;-8.436;2023-05-29T04:53:55;100401.50;;;15.80;100.00
61318;BME280;47201;40.428;-8.436;2023-05-29T04:55:58;100398.13;;;15.75;100.00
61318;BME280;47201;40.428;-8.436;2023-05-29T04:57:58;100398.97;;;15.75;100.00
61318;BME280;47201;40.428;-8.436;2023-05-29T05:00:01;100399.03;;;15.74;100.00
61318;BME280;47201;40.428;-8.436;2023-05-29T05:02:05;100404.41;;;15.70;100.00
61318;BME280;47201;40.428;-8.436;2023-05-29T05:04:06;100403.56;;;15.68;100.00
61318;BME280;47201;40.428;-8.436;2023-05-29T05:06:07;100400.84;;;15.71;100.00
61318;BME280;47201;40.428;-8.436;2023-05-29T05:08:08;100400.75;;;15.75;100.00
61318;BME280;47201;40.428;-8.436;2023-05-29T05:10:09;100402.56;;;15.73;100.00
61318;BME280;47201;40.428;-8.436;2023-05-29T05:12:10;100402.63;;;15.71;100.00
61318;BME280;47201;40.428;-8.436;2023-05-29T05:14:11;100391.22;;;15.70;100.00
61318;BME280;47201;40.428;-8.436;2023-05-29T05:16:12;100391.22;;;15.70;100.00
61318;BME280;47201;40.428;-8.436;2023-05-29T05:18:14;100404.34;;;15.72;100.00
61318;BME280;47201;40.428;-8.436;2023-05-29T05:20:16;100400.03;;;15.69;100.00
61318;BME280;47201;40.428;-8.436;2023-05-29T05:22:19;100403.47;;;15.71;100.00
61318;BME280;47201;40.428;-8.436;2023-05-29T05:24:22;100405.19;;;15.73;100.00
61318;BME280;47201;40.428;-8.436;2023-05-29T05:26:23;100406.03;;;15.75;100.00
61318;BME280;47201;40.428;-8.436;2023-05-29T05:28:24;100408.59;;;15.78;100.00
61318;BME280;47201;40.428;-8.436;2023-05-29T05:30:25;100408.66;;;15.75;100.00
61318;BME280;47201;40.428;-8.436;2023-05-29T05:32:26;100408.66;;;15.75;100.00
61318;BME280;47201;40.428;-8.436;2023-05-29T05:34:34;100413.09;;;15.73;100.00
61318;BME280;47201;40.428;-8.436;2023-05-29T05:36:35;100412.22;;;15.74;100.00
61318;BME280;47201;40.428;-8.436;2023-05-29T05:38:43;100419.22;;;15.75;100.00
61318;BME280;47201;40.428;-8.436;2023-05-29T05:40:44;100412.16;;;15.75;100.00
61318;BME280;47201;40.428;-8.436;2023-05-29T05:42:51;100414.00;;;15.73;100.00
61318;BME280;47201;40.428;-8.436;2023-05-29T05:44:56;100413.94;;;15.75;100.00
61318;BME280;47201;40.428;-8.436;2023-05-29T05:46:57;100416.53;;;15.76;100.00
61318;BME280;47201;40.428;-8.436;2023-05-29T05:48:58;100419.16;;;15.76;100.00
61318;BME280;47201;40.428;-8.436;2023-05-29T05:50:59;100419.25;;;15.73;100.00
61318;BME280;47201;40.428;-8.436;2023-05-29T05:53:00;100424.56;;;15.71;100.00
61318;BME280;47201;40.428;-8.436;2023-05-29T05:55:01;100416.63;;;15.73;100.00
61318;BME280;47201;40.428;-8.436;2023-05-29T05:57:04;100424.47;;;15.75;100.00
61318;BME280;47201;40.428;-8.436;2023-05-29T05:59:06;100420.00;;;15.78;100.00
61318;BME280;47201;40.428;-8.436;2023-05-29T06:01:07;100428.00;;;15.74;100.00
61318;BME280;47201;40.428;-8.436;2023-05-29T06:03:08;100423.66;;;15.73;100.00
61318;BME280;47201;40.428;-8.436;2023-05-29T06:05:23;100413.94;;;15.75;100.00
61318;BME280;47201;40.428;-8.436;2023-05-29T06:07:24;100416.56;;;15.75;100.00
61318;BME280;47201;40.428;-8.436;2023-05-29T06:09:25;100427.91;;;15.78;100.00
61318;BME280;47201;40.428;-8.436;2023-05-29T06:11:27;100427.81;;;15.83;100.00
61318;BME280;47201;40.428;-8.436;2023-05-29T06:13:27;100424.25;;;15.82;100.00
61318;BME280;47201;40.428;-8.436;2023-05-29T06:15:33;100425.09;;;15.86;100.00
61318;BME280;47201;40.428;-8.436;2023-05-29T06:17:36;100425.00;;;15.89;100.00
61318;BME280;47201;40.428;-8.436;2023-05-29T06:19:37;100427.56;;;15.92;100.00
61318;BME280;47201;40.428;-8.436;2023-05-29T06:21:38;100427.56;;;15.92;100.00
61318;BME280;47201;40.428;-8.436;2023-05-29T06:23:38;100430.13;;;15.94;100.00
61318;BME280;47201;40.428;-8.436;2023-05-29T06:25:42;100427.44;;;15.95;100.00
61318;BME280;47201;40.428;-8.436;2023-05-29T06:27:44;100437.91;;;15.98;100.00
61318;BME280;47201;40.428;-8.436;2023-05-29T06:29:45;100437.03;;;15.98;100.00
61318;BME280;47201;40.428;-8.436;2023-05-29T06:31:46;100433.47;;;16.00;100.00
61318;BME280;47201;40.428;-8.436;2023-05-29T06:33:46;100434.31;;;16.01;100.00
61318;BME280;47201;40.428;-8.436;2023-05-29T06:35:48;100433.38;;;16.04;100.00
61318;BME280;47201;40.428;-8.436;2023-05-29T06:37:50;100439.53;;;16.02;100.00
61318;BME280;47201;40.428;-8.436;2023-05-29T06:39:51;100431.63;;;16.04;100.00
61318;BME280;47201;40.428;-8.436;2023-05-29T06:41:52;100435.09;;;16.05;100.00
61318;BME280;47201;40.428;-8.436;2023-05-29T06:43:52;100436.91;;;16.02;100.00
61318;BME280;47201;40.428;-8.436;2023-05-29T06:45:55;100432.69;;;15.97;100.00
61318;BME280;47201;40.428;-8.436;2023-05-29T06:47:56;100435.19;;;16.01;100.00
61318;BME280;47201;40.428;-8.436;2023-05-29T06:49:57;100438.66;;;16.04;100.00
61318;BME280;47201;40.428;-8.436;2023-05-29T06:51:57;100437.91;;;15.98;100.00
61318;BME280;47201;40.428;-8.436;2023-05-29T06:54:07;100439.66;;;15.99;100.00
61318;BME280;47201;40.428;-8.436;2023-05-29T06:56:08;100436.13;;;16.00;100.00
61318;BME280;47201;40.428;-8.436;2023-05-29T06:58:08;100439.53;;;16.02;100.00
61318;BME280;47201;40.428;-8.436;2023-05-29T07:00:13;100437.91;;;15.98;100.00
61318;BME280;47201;40.428;-8.436;2023-05-29T07:02:20;100445.00;;;15.96;100.00
61318;BME280;47201;40.428;-8.436;2023-05-29T07:04:25;100441.63;;;15.91;100.00
61318;BME280;47201;40.428;-8.436;2023-05-29T07:06:26;100443.38;;;15.91;100.00
61318;BME280;47201;40.428;-8.436;2023-05-29T07:08:27;100454.63;;;15.97;100.00
61318;BME280;47201;40.428;-8.436;2023-05-29T07:10:28;100441.63;;;15.91;100.00
61318;BME280;47201;40.428;-8.436;2023-05-29T07:12:28;100444.16;;;15.94;100.00
61318;BME280;47201;40.428;-8.436;2023-05-29T07:14:29;100456.28;;;16.01;100.00
61318;BME280;47201;40.428;-8.436;2023-05-29T07:16:30;100452.66;;;16.06;100.00
61318;BME280;47201;40.428;-8.436;2023-05-29T07:18:37;100456.06;;;16.09;100.00
61318;BME280;47201;40.428;-8.436;2023-05-29T07:20:38;100456.00;;;16.11;100.00
61318;BME280;47201;40.428;-8.436;2023-05-29T07:22:42;100460.34;;;16.13;100.00
61318;BME280;47201;40.428;-8.436;2023-05-29T07:24:43;100454.41;;;16.05;100.00
61318;BME280;47201;40.428;-8.436;2023-05-29T07:26:43;100452.59;;;16.07;100.00
61318;BME280;47201;40.428;-8.436;2023-05-29T07:28:44;100460.38;;;16.12;100.00
61318;BME280;47201;40.428;-8.436;2023-05-29T07:30:45;100454.97;;;16.16;100.00
61318;BME280;47201;40.428;-8.436;2023-05-29T07:32:48;100459.22;;;16.22;100.00
61318;BME280;47201;40.428;-8.436;2023-05-29T07:34:50;100452.22;;;16.21;100.00
61318;BME280;47201;40.428;-8.436;2023-05-29T07:39:02;100444.66;;;16.39;100.00
61318;BME280;47201;40.428;-8.436;2023-05-29T07:41:05;100444.50;;;16.45;100.00
61318;BME280;47201;40.428;-8.436;2023-05-29T07:43:10;100446.03;;;16.52;100.00
61318;BME280;47201;40.428;-8.436;2023-05-29T07:45:37;100446.28;;;16.73;100.00
61318;BME280;47201;40.428;-8.436;2023-05-29T07:47:56;100456.56;;;16.82;100.00
61318;BME280;47201;40.428;-8.436;2023-05-29T07:49:57;100458.25;;;16.83;100.00
61318;BME280;47201;40.428;-8.436;2023-05-29T11:42:32;100486.63;;;18.11;100.00
61318;BME280;47201;40.428;-8.436;2023-05-29T11:44:33;100487.84;;;18.02;100.00
61318;BME280;47201;40.428;-8.436;2023-05-29T11:46:35;100487.13;;;17.97;100.00
61318;BME280;47201;40.428;-8.436;2023-05-29T11:48:44;100484.47;;;17.97;100.00
61318;BME280;47201;40.428;-8.436;2023-05-29T11:50:45;100488.06;;;17.94;100.00
61318;BME280;47201;40.428;-8.436;2023-05-29T11:52:47;100494.50;;;17.87;100.00
61318;BME280;47201;40.428;-8.436;2023-05-29T11:54:47;100491.31;;;17.77;100.00
61318;BME280;47201;40.428;-8.436;2023-05-29T11:56:48;100490.72;;;17.69;100.00
61318;BME280;47201;40.428;-8.436;2023-05-29T11:58:49;100490.03;;;17.64;100.00
61318;BME280;47201;40.428;-8.436;2023-05-29T12:00:50;100490.25;;;17.56;100.00
61318;BME280;47201;40.428;-8.436;2023-05-29T12:02:51;100486.94;;;17.51;100.00
61318;BME280;47201;40.428;-8.436;2023-05-29T12:05:01;100482.69;;;17.45;100.00
61318;BME280;47201;40.428;-8.436;2023-05-29T12:07:17;100480.28;;;17.39;100.00
61318;BME280;47201;40.428;-8.436;2023-05-29T12:09:25;100480.22;;;17.40;100.00
61318;BME280;47201;40.428;-8.436;2023-05-29T12:11:26;100478.69;;;17.33;100.00
61318;BME280;47201;40.428;-8.436;2023-05-29T12:13:27;100474.78;;;17.18;100.00
61318;BME280;47201;40.428;-8.436;2023-05-29T12:15:28;100483.16;;;17.04;100.00
61318;BME280;47201;40.428;-8.436;2023-05-29T12:17:29;100481.41;;;17.03;100.00
61318;BME280;47201;40.428;-8.436;2023-05-29T12:19:31;100474.41;;;17.02;100.00
61318;BME280;47201;40.428;-8.436;2023-05-29T12:21:31;100478.75;;;17.05;100.00
61318;BME280;47201;40.428;-8.436;2023-05-29T12:23:32;100476.34;;;16.97;100.00
61318;BME280;47201;40.428;-8.436;2023-05-29T12:25:34;100479.03;;;16.95;100.00
61318;BME280;47201;40.428;-8.436;2023-05-29T12:27:38;100478.13;;;16.96;100.00
61318;BME280;47201;40.428;-8.436;2023-05-29T12:29:43;100477.31;;;16.94;100.00
61318;BME280;47201;40.428;-8.436;2023-05-29T12:31:45;100476.47;;;16.92;100.00
61318;BME280;47201;40.428;-8.436;2023-05-29T12:33:45;100474.00;;;16.86;100.00
61318;BME280;47201;40.428;-8.436;2023-05-29T12:35:46;100474.72;;;16.91;100.00
61318;BME280;47201;40.428;-8.436;2023-05-29T12:37:49;100477.31;;;16.94;100.00
61318;BME280;47201;40.428;-8.436;2023-05-29T12:40:23;100479.09;;;16.94;100.00
61318;BME280;47201;40.428;-8.436;2023-05-29T12:42:24;100473.03;;;16.89;100.00
61318;BME280;47201;40.428;-8.436;2023-05-29T12:44:24;100469.56;;;16.87;100.00
61318;BME280;47201;40.428;-8.436;2023-05-29T12:46:25;100468.81;;;16.83;100.00
61318;BME280;47201;40.428;-8.436;2023-05-29T12:48:27;100471.50;;;16.81;100.00
61318;BME280;47201;40.428;-8.436;2023-05-29T12:52:30;100475.03;;;16.82;100.00
61318;BME280;47201;40.428;-8.436;2023-05-29T12:54:31;100469.13;;;17.02;100.00
61318;BME280;47201;40.428;-8.436;2023-05-29T12:56:31;100465.34;;;17.11;100.00
61318;BME280;47201;40.428;-8.436;2023-05-29T12:58:32;100471.13;;;17.22;100.00
61318;BME280;47201;40.428;-8.436;2023-05-29T13:00:34;100469.31;;;17.24;100.00
61318;BME280;47201;40.428;-8.436;2023-05-29T13:02:35;100465.69;;;17.27;100.00
61318;BME280;47201;40.428;-8.436;2023-05-29T13:04:36;100471.03;;;17.25;100.00
61318;BME280;47201;40.428;-8.436;2023-05-29T13:06:37;100471.03;;;17.25;100.00
61318;BME280;47201;40.428;-8.436;2023-05-29T13:08:38;100472.63;;;17.31;100.00
61318;BME280;47201;40.428;-8.436;2023-05-29T13:10:39;100473.09;;;17.42;100.00
61318;BME280;47201;40.428;-8.436;2023-05-29T13:12:43;100471.75;;;17.56;100.00
61318;BME280;47201;40.428;-8.436;2023-05-29T13:15:03;100465.50;;;17.58;100.00
61318;BME280;47201;40.428;-8.436;2023-05-29T13:17:05;100465.84;;;17.49;100.00
61318;BME280;47201;40.428;-8.436;2023-05-29T13:19:06;100460.66;;;17.46;100.00
61318;BME280;47201;40.428;-8.436;2023-05-29T13:21:07;100466.53;;;17.54;100.00
61318;BME280;47201;40.428;-8.436;2023-05-29T13:23:08;100463.38;;;17.43;100.00
61318;BME280;47201;40.428;-8.436;2023-05-29T13:25:44;100461.88;;;17.36;100.00
61318;BME280;47201;40.428;-8.436;2023-05-29T13:27:47;100463.09;;;17.25;100.00
61318;BME280;47201;40.428;-8.436;2023-05-29T13:29:48;100458.75;;;17.24;100.00
61318;BME280;47201;40.428;-8.436;2023-05-29T13:31:49;100457.09;;;17.20;100.00
61318;BME280;47201;40.428;-8.436;2023-05-29T13:33:49;100453.91;;;17.10;100.00
61318;BME280;47201;40.428;-8.436;2023-05-29T13:35:51;100454.03;;;17.06;100.00
61318;BME280;47201;40.428;-8.436;2023-05-29T13:37:52;100463.00;;;17.02;100.00
61318;BME280;47201;40.428;-8.436;2023-05-29T13:39:53;100463.00;;;17.02;100.00
61318;BME280;47201;40.428;-8.436;2023-05-29T13:41:54;100459.25;;;17.09;100.00
61318;BME280;47201;40.428;-8.436;2023-05-29T13:43:56;100450.41;;;17.10;100.00
61318;BME280;47201;40.428;-8.436;2023-05-29T13:45:57;100452.00;;;17.16;100.00
61318;BME280;47201;40.428;-8.436;2023-05-29T13:47:58;100455.22;;;17.24;100.00
61318;BME280;47201;40.428;-8.436;2023-05-29T13:49:59;100446.97;;;17.35;100.00
61318;BME280;47201;40.428;-8.436;2023-05-29T13:52:01;100450.91;;;17.48;100.00
61318;BME280;47201;40.428;-8.436;2023-05-29T13:54:03;100452.41;;;17.55;100.00
61318;BME280;47201;40.428;-8.436;2023-05-29T13:56:04;100453.38;;;17.53;100.00
61318;BME280;47201;40.428;-8.436;2023-05-29T13:58:05;100455.91;;;17.56;100.00
61318;BME280;47201;40.428;-8.436;2023-05-29T14:00:06;100450.78;;;17.51;100.00
61318;BME280;47201;40.428;-8.436;2023-05-29T14:02:08;100450.91;;;17.48;100.00
61318;BME280;47201;40.428;-8.436;2023-05-29T14:04:08;100444.84;;;17.44;100.00
61318;BME280;47201;40.428;-8.436;2023-05-29T14:06:13;100458.69;;;17.51;100.00
61318;BME280;47201;40.428;-8.436;2023-05-29T14:08:13;100450.91;;;17.48;100.00
61318;BME280;47201;40.428;-8.436;2023-05-29T14:10:14;100449.25;;;17.44;100.00
61318;BME280;47201;40.428;-8.436;2023-05-29T14:12:15;100448.47;;;17.42;100.00
61318;BME280;47201;40.428;-8.436;2023-05-29T14:14:15;100448.56;;;17.39;100.00
61318;BME280;47201;40.428;-8.436;2023-05-29T14:16:16;100455.81;;;17.32;100.00
61318;BME280;47201;40.428;-8.436;2023-05-29T14:18:17;100442.72;;;17.29;100.00
61318;BME280;47201;40.428;-8.436;2023-05-29T14:20:17;100450.75;;;17.26;100.00
61318;BME280;47201;40.428;-8.436;2023-05-29T14:22:18;100442.19;;;17.19;100.00
61318;BME280;47201;40.428;-8.436;2023-05-29T14:24:19;100440.34;;;17.21;100.00
61318;BME280;47201;40.428;-8.436;2023-05-29T14:26:20;100440.34;;;17.21;100.00